createdAt,value
2022-12-27T00:01:29.167Z,2.20
2022-12-27T00:04:03.409Z,2.53
2022-12-27T00:06:33.051Z,1.95
2022-12-27T00:09:04.032Z,2.17
2022-12-27T00:11:33.979Z,2.40
2022-12-27T00:14:04.462Z,2.40
2022-12-27T00:16:36.370Z,2.30
2022-12-27T00:19:06.350Z,2.13
2022-12-27T00:21:36.241Z,2.40
2022-12-27T00:24:05.627Z,2.15
2022-12-27T00:26:36.424Z,2.25
2022-12-27T00:29:06.136Z,1.47
2022-12-27T00:31:37.194Z,2.40
2022-12-27T00:34:12.655Z,2.70
2022-12-27T00:36:41.898Z,2.70
2022-12-27T00:39:12.668Z,2.47
2022-12-27T00:41:48.284Z,2.58
2022-12-27T00:44:22.560Z,2.50
2022-12-27T00:47:02.206Z,2.40
2022-12-27T00:49:34.127Z,2.47
2022-12-27T00:54:44.174Z,2.60
2022-12-27T00:57:13.338Z,2.30
2022-12-27T00:59:42.673Z,2.28
2022-12-27T01:02:14.602Z,2.55
2022-12-27T01:04:43.852Z,2.50
2022-12-27T01:07:12.908Z,2.40
2022-12-27T01:09:44.588Z,3.13
2022-12-27T01:12:13.898Z,2.75
2022-12-27T01:14:42.956Z,2.90
2022-12-27T01:17:14.286Z,3.15
2022-12-27T01:19:43.605Z,4.07
2022-12-27T01:22:12.735Z,3.67
2022-12-27T01:24:47.080Z,3.92
2022-12-27T01:27:16.430Z,4.13
2022-12-27T01:29:47.503Z,3.88
2022-12-27T01:34:58.429Z,4.55
2022-12-27T01:37:29.802Z,4.25
2022-12-27T01:39:59.524Z,3.75
2022-12-27T01:42:42.797Z,3.95
2022-12-27T01:45:19.199Z,3.75
2022-12-27T01:48:01.156Z,2.58
2022-12-27T01:50:39.962Z,3.65
2022-12-27T01:53:13.622Z,4.07
2022-12-27T01:55:47.825Z,3.53
2022-12-27T01:58:20.677Z,3.20
2022-12-27T02:00:51.166Z,3.35
2022-12-27T02:03:27.235Z,2.80
2022-12-27T02:05:57.415Z,3.15
2022-12-27T02:08:40.834Z,2.58
2022-12-27T02:11:11.137Z,3.17
2022-12-27T02:13:43.907Z,2.83
2022-12-27T02:16:33.519Z,3.00
2022-12-27T02:19:10.725Z,2.95
2022-12-27T02:22:03.060Z,2.70
2022-12-27T02:24:53.698Z,2.72
2022-12-27T02:27:45.888Z,2.80
2022-12-27T02:35:31.996Z,2.70
2022-12-27T02:38:14.316Z,2.70
2022-12-27T02:40:58.995Z,2.40
2022-12-27T02:43:41.675Z,2.58
2022-12-27T02:46:32.066Z,2.25
2022-12-27T02:49:15.654Z,2.70
2022-12-27T02:52:20.218Z,2.60
2022-12-27T02:55:17.452Z,2.30
2022-12-27T02:58:02.723Z,2.65
2022-12-27T03:00:50.529Z,2.70
2022-12-27T03:03:44.870Z,2.08
2022-12-27T03:06:44.377Z,2.60
2022-12-27T03:10:08.145Z,2.90
2022-12-27T03:13:02.174Z,2.80
2022-12-27T03:15:57.763Z,2.40
2022-12-27T03:18:52.367Z,2.80
2022-12-27T03:21:40.972Z,2.90
2022-12-27T03:24:23.786Z,2.50
2022-12-27T03:26:54.261Z,3.30
2022-12-27T03:29:37.487Z,3.10
2022-12-27T03:32:27.226Z,3.25
2022-12-27T03:35:03.704Z,3.13
2022-12-27T03:37:49.328Z,2.35
2022-12-27T03:40:34.208Z,2.42
2022-12-27T03:43:11.017Z,2.70
2022-12-27T03:46:11.808Z,2.65
2022-12-27T03:48:55.715Z,2.55
2022-12-27T03:51:30.043Z,2.47
2022-12-27T03:54:06.192Z,2.38
2022-12-27T03:56:35.676Z,3.15
2022-12-27T03:59:05.599Z,2.78
2022-12-27T04:01:34.874Z,2.85
2022-12-27T04:04:04.191Z,2.97
2022-12-27T04:06:43.486Z,2.60
2022-12-27T04:09:26.453Z,2.72
2022-12-27T04:12:08.774Z,3.20
2022-12-27T04:17:39.144Z,2.78
2022-12-27T04:23:10.166Z,2.95
2022-12-27T04:25:57.361Z,3.13
2022-12-27T04:28:39.459Z,2.92
2022-12-27T04:31:21.679Z,2.75
2022-12-27T04:34:05.029Z,3.45
2022-12-27T04:36:45.143Z,3.22
2022-12-27T04:39:16.537Z,3.22
2022-12-27T04:41:58.865Z,3.97
2022-12-27T04:44:41.018Z,3.70
2022-12-27T04:47:30.098Z,3.67
2022-12-27T04:50:12.477Z,3.70
2022-12-27T04:52:59.570Z,4.03
2022-12-27T04:55:32.073Z,3.72
2022-12-27T04:58:01.661Z,4.10
2022-12-27T05:00:45.644Z,4.18
2022-12-27T05:03:18.155Z,4.22
2022-12-27T05:05:49.263Z,4.05
2022-12-27T05:08:38.611Z,4.30
2022-12-27T05:11:23.917Z,4.32
2022-12-27T05:14:02.275Z,4.18
2022-12-27T05:16:33.019Z,4.18
2022-12-27T05:19:02.277Z,3.90
2022-12-27T05:21:31.520Z,3.95
2022-12-27T05:26:50.450Z,4.85
2022-12-27T05:29:19.604Z,4.60
2022-12-27T05:31:53.791Z,4.70
2022-12-27T05:34:23.157Z,4.30
2022-12-27T05:36:52.370Z,4.65
2022-12-27T05:39:21.534Z,4.90
2022-12-27T05:41:52.663Z,4.47
2022-12-27T05:44:26.893Z,4.72
2022-12-27T05:46:56.622Z,4.90
2022-12-27T05:49:25.805Z,5.10
2022-12-27T05:54:35.358Z,5.10
2022-12-27T05:57:06.876Z,6.13
2022-12-27T05:59:36.309Z,5.10
2022-12-27T06:02:10.625Z,5.97
2022-12-27T06:04:40.141Z,5.60
2022-12-27T06:07:09.468Z,4.90
2022-12-27T06:09:38.827Z,4.97
2022-12-27T06:12:10.094Z,5.57
2022-12-27T06:14:40.987Z,5.13
2022-12-27T06:17:10.032Z,4.55
2022-12-27T06:19:39.750Z,6.03
2022-12-27T06:22:08.917Z,6.35
2022-12-27T06:24:49.460Z,6.15
2022-12-27T06:27:20.777Z,7.00
2022-12-27T06:29:50.050Z,8.55
2022-12-27T06:32:19.266Z,7.63
2022-12-27T06:34:48.503Z,7.82
2022-12-27T06:37:17.746Z,8.30
2022-12-27T06:39:46.954Z,8.48
2022-12-27T06:42:16.172Z,8.52
2022-12-27T06:44:47.913Z,8.23
2022-12-27T06:47:17.298Z,8.73
2022-12-27T06:49:47.185Z,8.15
2022-12-27T06:52:16.355Z,7.55
2022-12-27T06:54:45.465Z,7.53
2022-12-27T06:57:14.734Z,8.32
2022-12-27T06:59:48.080Z,7.57
2022-12-27T07:02:22.347Z,8.77
2022-12-27T07:04:51.605Z,7.20
2022-12-27T07:07:20.726Z,6.65
2022-12-27T07:09:55.039Z,6.00
2022-12-27T07:12:24.327Z,6.50
2022-12-27T07:14:53.516Z,6.72
2022-12-27T07:17:24.769Z,5.90
2022-12-27T07:19:54.055Z,5.10
2022-12-27T07:22:23.174Z,7.20
2022-12-27T07:24:52.462Z,6.40
2022-12-27T07:27:21.533Z,6.70
2022-12-27T07:29:51.238Z,7.25
2022-12-27T07:32:26.691Z,6.75
2022-12-27T07:34:58.335Z,6.30
2022-12-27T07:37:27.571Z,6.22
2022-12-27T07:39:56.610Z,6.60
2022-12-27T07:42:37.926Z,6.93
2022-12-27T07:45:12.405Z,7.18
2022-12-27T07:47:41.654Z,7.00
2022-12-27T07:50:13.162Z,7.20
2022-12-27T07:52:42.433Z,7.80
2022-12-27T07:55:12.003Z,8.55
2022-12-27T07:57:41.812Z,8.73
2022-12-27T08:00:12.178Z,8.30
2022-12-27T08:02:42.992Z,8.98
2022-12-27T08:05:25.896Z,7.37
2022-12-27T08:08:00.848Z,6.95
2022-12-27T08:10:30.348Z,8.80
2022-12-27T08:12:59.611Z,7.13
2022-12-27T08:15:28.901Z,6.60
2022-12-27T08:17:58.221Z,6.25
2022-12-27T08:20:29.781Z,7.43
2022-12-27T08:23:05.647Z,6.30
2022-12-27T08:25:34.738Z,6.55
2022-12-27T08:28:12.092Z,7.72
2022-12-27T08:30:42.150Z,7.82
2022-12-27T08:33:11.583Z,7.07
2022-12-27T08:38:24.519Z,9.07
2022-12-27T08:40:53.574Z,6.82
2022-12-27T08:43:29.527Z,7.93
2022-12-27T08:46:02.991Z,7.40
2022-12-27T08:51:14.540Z,6.80
2022-12-27T08:53:51.895Z,7.00
2022-12-27T08:56:21.076Z,7.30
2022-12-27T08:58:51.177Z,7.60
2022-12-27T09:01:20.637Z,7.43
2022-12-27T09:03:49.804Z,9.27
2022-12-27T09:06:27.302Z,6.72
2022-12-27T09:08:56.900Z,6.65
2022-12-27T09:11:27.882Z,5.20
2022-12-27T09:14:01.462Z,3.33
2022-12-27T09:16:38.657Z,3.72
2022-12-27T09:19:07.816Z,3.15
2022-12-27T09:21:42.500Z,3.50
2022-12-27T09:24:13.746Z,3.60
2022-12-27T09:26:44.654Z,3.47
2022-12-27T09:29:14.483Z,5.53
2022-12-27T09:31:43.664Z,3.75
2022-12-27T09:34:13.597Z,3.50
2022-12-27T09:36:45.954Z,4.00
2022-12-27T09:44:57.814Z,6.93
2022-12-27T09:47:30.508Z,5.10
2022-12-27T09:50:04.867Z,4.57
2022-12-27T09:52:43.105Z,5.68
2022-12-27T09:55:19.701Z,5.38
2022-12-27T09:57:50.130Z,5.32
2022-12-27T10:00:34.820Z,5.50
2022-12-27T10:03:07.363Z,4.88
2022-12-27T10:08:36.844Z,4.75
2022-12-27T10:11:35.685Z,4.93
2022-12-27T10:14:16.236Z,5.65
2022-12-27T10:17:03.463Z,4.43
2022-12-27T10:19:48.159Z,5.20
2022-12-27T10:22:30.874Z,5.65
2022-12-27T10:25:07.084Z,5.22
2022-12-27T10:27:36.956Z,7.00
2022-12-27T10:30:16.762Z,5.80
2022-12-27T10:32:51.648Z,5.70
2022-12-27T10:35:23.726Z,6.78
2022-12-27T10:37:53.638Z,6.65
2022-12-27T10:40:34.498Z,5.55
2022-12-27T10:43:07.968Z,5.32
2022-12-27T10:45:41.832Z,12.35
2022-12-27T10:48:21.030Z,7.00
2022-12-27T10:50:59.709Z,7.43
2022-12-27T10:53:36.406Z,6.80
2022-12-27T10:56:16.632Z,6.57
2022-12-27T10:58:54.642Z,6.50
2022-12-27T11:01:29.392Z,12.25
2022-12-27T11:04:20.572Z,6.50
2022-12-27T11:06:52.144Z,9.90
2022-12-27T11:09:28.028Z,5.57
2022-12-27T11:12:18.907Z,8.45
2022-12-27T11:14:59.824Z,5.93
2022-12-27T11:17:31.584Z,7.45
2022-12-27T11:20:04.349Z,7.47
2022-12-27T11:22:34.065Z,7.95
2022-12-27T11:25:03.621Z,6.97
2022-12-27T11:27:35.319Z,11.30
2022-12-27T11:30:04.605Z,5.40
2022-12-27T11:32:34.929Z,8.52
2022-12-27T11:35:04.496Z,6.93
2022-12-27T11:37:33.803Z,7.60
2022-12-27T11:40:23.051Z,6.82
2022-12-27T11:42:59.871Z,6.85
2022-12-27T11:45:36.639Z,6.38
2022-12-27T11:48:14.965Z,6.57
2022-12-27T11:51:02.735Z,7.35
2022-12-27T11:54:05.546Z,7.35
2022-12-27T11:56:38.775Z,6.65
2022-12-27T11:59:40.452Z,9.30
2022-12-27T12:02:34.149Z,6.63
2022-12-27T12:05:41.453Z,7.15
2022-12-27T12:08:36.025Z,6.22
2022-12-27T12:11:15.110Z,5.78
2022-12-27T12:14:21.613Z,7.35
2022-12-27T12:17:41.080Z,5.80
2022-12-27T12:20:34.451Z,6.00
2022-12-27T12:23:12.780Z,6.82
2022-12-27T12:26:07.561Z,7.13
2022-12-27T12:29:06.221Z,5.43
2022-12-27T12:32:05.686Z,8.10
2022-12-27T12:35:01.066Z,6.75
2022-12-27T12:37:59.563Z,5.20
2022-12-27T12:40:58.657Z,6.32
2022-12-27T12:43:58.032Z,6.50
2022-12-27T12:46:34.424Z,5.82
2022-12-27T12:55:02.999Z,4.65
2022-12-27T12:57:47.969Z,5.22
2022-12-27T13:00:39.243Z,4.80
2022-12-27T13:03:31.010Z,4.40
2022-12-27T13:06:13.871Z,5.03
2022-12-27T13:08:54.554Z,5.70
2022-12-27T13:11:43.436Z,6.07
2022-12-27T13:14:29.328Z,6.60
2022-12-27T13:17:04.279Z,4.82
2022-12-27T13:20:00.418Z,5.15
2022-12-27T13:22:46.950Z,5.30
2022-12-27T13:25:27.365Z,4.40
2022-12-27T13:28:25.795Z,4.65
2022-12-27T13:31:03.793Z,5.30
2022-12-27T13:33:45.528Z,4.93
2022-12-27T13:36:29.124Z,4.82
2022-12-27T13:39:19.880Z,6.50
2022-12-27T13:42:19.821Z,4.65
2022-12-27T13:45:03.137Z,6.00
2022-12-27T13:48:05.853Z,6.05
2022-12-27T13:50:58.822Z,5.72
2022-12-27T13:54:12.083Z,6.63
2022-12-27T13:56:56.616Z,6.10
2022-12-27T13:59:48.952Z,5.50
2022-12-27T14:02:52.772Z,4.72
2022-12-27T14:06:00.486Z,5.80
2022-12-27T14:08:42.931Z,7.63
2022-12-27T14:11:31.112Z,5.90
2022-12-27T14:14:02.537Z,5.03
2022-12-27T14:16:41.444Z,5.72
2022-12-27T14:19:36.665Z,6.95
2022-12-27T14:22:26.640Z,5.70
2022-12-27T14:25:31.068Z,5.13
2022-12-27T14:28:32.895Z,4.32
2022-12-27T14:31:34.538Z,5.35
2022-12-27T14:34:30.101Z,3.40
2022-12-27T14:37:24.838Z,4.97
2022-12-27T14:40:34.789Z,5.00
2022-12-27T14:43:51.966Z,4.80
2022-12-27T14:46:56.959Z,4.10
2022-12-27T14:49:59.989Z,4.57
2022-12-27T14:53:06.943Z,5.43
2022-12-27T14:56:03.732Z,5.18
2022-12-27T14:58:51.479Z,4.70
2022-12-27T15:01:39.127Z,3.78
2022-12-27T15:04:34.372Z,5.75
2022-12-27T15:07:33.910Z,5.40
2022-12-27T15:10:11.990Z,5.65
2022-12-27T15:12:51.840Z,5.60
2022-12-27T15:15:35.336Z,4.57
2022-12-27T15:18:18.930Z,4.00
2022-12-27T15:21:03.420Z,4.03
2022-12-27T15:23:46.165Z,4.78
2022-12-27T15:26:23.875Z,4.32
2022-12-27T15:29:19.490Z,5.15
2022-12-27T15:31:59.425Z,4.00
2022-12-27T15:34:42.944Z,4.30
2022-12-27T15:37:42.066Z,5.35
2022-12-27T15:40:40.722Z,4.85
2022-12-27T15:43:24.392Z,4.97
2022-12-27T15:46:09.944Z,4.38
2022-12-27T15:48:53.816Z,4.85
2022-12-27T15:51:34.071Z,5.60
2022-12-27T15:54:24.506Z,6.00
2022-12-27T15:57:38.259Z,4.43
2022-12-27T16:00:16.784Z,5.00
2022-12-27T16:02:54.262Z,4.45
2022-12-27T16:05:44.670Z,4.55
2022-12-27T16:08:41.508Z,4.30
2022-12-27T16:11:13.621Z,5.50
2022-12-27T16:13:48.521Z,5.10
2022-12-27T16:16:56.731Z,5.25
2022-12-27T16:19:41.065Z,4.75
2022-12-27T16:22:25.578Z,4.63
2022-12-27T16:24:55.432Z,4.50
2022-12-27T16:27:32.732Z,4.53
2022-12-27T16:30:02.479Z,4.40
2022-12-27T16:32:34.455Z,3.88
2022-12-27T16:35:17.464Z,3.87
2022-12-27T16:37:54.307Z,3.60
2022-12-27T16:40:42.634Z,4.75
2022-12-27T16:43:51.053Z,4.05
2022-12-27T16:46:36.343Z,3.40
2022-12-27T16:49:24.950Z,5.60
2022-12-27T16:52:13.433Z,5.22
2022-12-27T16:54:53.827Z,4.80
2022-12-27T16:57:48.080Z,4.57
2022-12-27T17:00:39.891Z,4.43
2022-12-27T17:03:35.006Z,4.47
2022-12-27T17:06:34.436Z,3.00
2022-12-27T17:09:38.865Z,3.65
2022-12-27T17:12:19.271Z,3.17
2022-12-27T17:17:26.460Z,4.88
2022-12-27T17:20:11.937Z,3.75
2022-12-27T17:22:41.755Z,4.07
2022-12-27T17:25:27.353Z,5.38
2022-12-27T17:28:11.369Z,4.25
2022-12-27T17:30:52.757Z,4.30
2022-12-27T17:33:37.340Z,5.30
2022-12-27T17:36:54.567Z,5.93
2022-12-27T17:39:44.984Z,5.60
2022-12-27T17:42:34.433Z,4.60
2022-12-27T17:45:21.047Z,4.70
2022-12-27T17:48:07.925Z,6.45
2022-12-27T17:50:41.114Z,6.38
2022-12-27T17:53:32.904Z,4.63
2022-12-27T17:56:17.460Z,4.03
2022-12-27T17:58:46.907Z,4.85
2022-12-27T18:01:18.203Z,3.60
2022-12-27T18:03:49.242Z,4.72
2022-12-27T18:06:21.521Z,3.37
2022-12-27T18:08:52.117Z,3.35
2022-12-27T18:11:27.754Z,3.50
2022-12-27T18:14:01.003Z,4.28
2022-12-27T18:16:39.635Z,5.03
2022-12-27T18:19:20.886Z,3.97
2022-12-27T18:21:57.348Z,3.88
2022-12-27T18:24:29.008Z,3.20
2022-12-27T18:27:12.104Z,4.40
2022-12-27T18:29:46.583Z,3.80
2022-12-27T18:32:20.493Z,3.65
2022-12-27T18:34:56.096Z,5.72
2022-12-27T18:37:27.642Z,4.22
2022-12-27T18:39:59.836Z,4.88
2022-12-27T18:42:36.252Z,3.72
2022-12-27T18:45:09.170Z,3.55
2022-12-27T18:47:46.878Z,3.80
2022-12-27T18:50:19.914Z,3.70
2022-12-27T18:52:54.941Z,3.35
2022-12-27T18:55:27.250Z,4.38
2022-12-27T18:58:05.389Z,3.42
2022-12-27T19:00:48.178Z,3.70
2022-12-27T19:03:21.456Z,3.60
2022-12-27T19:06:10.293Z,2.80
2022-12-27T19:08:45.555Z,3.47
2022-12-27T19:11:23.768Z,3.35
2022-12-27T19:13:56.228Z,2.92
2022-12-27T19:16:29.467Z,4.00
2022-12-27T19:19:08.424Z,3.65
2022-12-27T19:21:40.472Z,3.28
2022-12-27T19:27:06.652Z,3.42
2022-12-27T19:29:42.569Z,4.05
2022-12-27T19:32:21.336Z,3.00
2022-12-27T19:34:54.672Z,3.83
2022-12-27T19:37:27.504Z,3.65
2022-12-27T19:40:02.137Z,3.88
2022-12-27T19:42:35.055Z,2.88
2022-12-27T19:45:04.556Z,2.95
2022-12-27T19:47:38.826Z,3.13
2022-12-27T19:50:11.576Z,3.25
2022-12-27T19:52:47.088Z,3.72
2022-12-27T19:55:29.950Z,5.40
2022-12-27T19:57:59.601Z,3.70
2022-12-27T20:00:28.923Z,3.35
2022-12-27T20:02:58.440Z,3.00
2022-12-27T20:06:11.734Z,3.30
2022-12-27T20:08:26.270Z,3.60
2022-12-27T20:11:01.891Z,3.10
2022-12-27T20:13:31.114Z,2.92
2022-12-27T20:16:07.261Z,3.45
2022-12-27T20:18:36.694Z,3.90
2022-12-27T20:21:18.280Z,4.78
2022-12-27T20:23:49.274Z,4.78
2022-12-27T20:26:21.094Z,3.40
2022-12-27T20:31:22.966Z,3.10
2022-12-27T20:33:58.173Z,3.35
2022-12-27T20:36:29.413Z,2.97
2022-12-27T20:39:00.563Z,2.70
2022-12-27T20:44:19.359Z,2.78
2022-12-27T20:49:34.187Z,3.95
2022-12-27T20:52:05.825Z,5.22
2022-12-27T20:57:16.076Z,5.38
2022-12-27T20:59:50.342Z,3.90
2022-12-27T21:02:20.365Z,3.28
2022-12-27T21:04:49.684Z,3.75
2022-12-27T21:07:20.883Z,4.93
2022-12-27T21:09:50.235Z,4.10
2022-12-27T21:12:19.594Z,4.22
2022-12-27T21:14:49.576Z,3.65
2022-12-27T21:17:18.941Z,3.42
2022-12-27T21:19:55.146Z,4.55
2022-12-27T21:22:26.291Z,3.47
2022-12-27T21:24:55.634Z,3.60
2022-12-27T21:27:24.689Z,3.25
2022-12-27T21:30:01.384Z,3.40
2022-12-27T21:32:32.353Z,2.97
2022-12-27T21:35:07.320Z,3.40
2022-12-27T21:37:38.416Z,4.13
2022-12-27T21:40:09.314Z,3.08
2022-12-27T21:42:38.480Z,3.38
2022-12-27T21:45:08.872Z,3.08
2022-12-27T21:47:38.258Z,4.05
2022-12-27T21:50:08.170Z,4.05
2022-12-27T21:52:39.406Z,3.83
2022-12-27T21:55:09.191Z,4.15
2022-12-27T21:57:48.293Z,5.40
2022-12-27T22:00:18.277Z,3.95
2022-12-27T22:02:49.628Z,3.83
2022-12-27T22:05:24.966Z,4.18
2022-12-27T22:07:58.187Z,3.60
2022-12-27T22:10:27.496Z,3.58
2022-12-27T22:12:56.628Z,3.15
2022-12-27T22:15:25.990Z,2.83
2022-12-27T22:18:01.400Z,4.13
2022-12-27T22:20:30.611Z,3.25
2022-12-27T22:23:01.632Z,3.80
2022-12-27T22:25:35.985Z,3.88
2022-12-27T22:28:05.060Z,5.15
2022-12-27T22:30:37.166Z,4.40
2022-12-27T22:35:47.168Z,4.13
2022-12-27T22:38:18.281Z,4.25
2022-12-27T22:40:47.470Z,5.63
2022-12-27T22:43:16.734Z,4.90
2022-12-27T22:45:51.932Z,4.15
2022-12-27T22:48:23.021Z,4.35
2022-12-27T22:50:52.167Z,5.25
2022-12-27T22:53:28.725Z,5.60
2022-12-27T22:55:58.042Z,4.63
2022-12-27T22:58:31.150Z,3.60
2022-12-27T23:01:12.620Z,3.78
2022-12-27T23:03:42.069Z,3.33
2022-12-27T23:06:12.071Z,4.03
2022-12-27T23:08:49.412Z,4.03
2022-12-27T23:11:25.974Z,3.25
2022-12-27T23:13:57.530Z,3.10
2022-12-27T23:16:27.228Z,4.20
2022-12-27T23:18:57.048Z,4.50
2022-12-27T23:21:26.261Z,4.00
2022-12-27T23:24:02.846Z,4.22
2022-12-27T23:26:32.345Z,3.83
2022-12-27T23:29:01.960Z,3.17
2022-12-27T23:31:31.364Z,3.85
2022-12-27T23:34:00.755Z,5.03
2022-12-27T23:36:32.391Z,3.20
2022-12-27T23:39:03.752Z,3.17
2022-12-27T23:41:33.381Z,3.00
2022-12-27T23:44:03.041Z,2.40
2022-12-27T23:46:37.417Z,3.70
2022-12-27T23:49:06.761Z,3.40
2022-12-27T23:51:36.096Z,2.95
2022-12-27T23:54:07.333Z,2.55
2022-12-27T23:56:36.590Z,3.72
2022-12-27T23:59:10.755Z,3.63
